Oneida Castle, New York
Current Conditions -  °F | °C
As of 11:53 PM on Wednesday 22 Oct 2014 (Local Time) from KRME Reporting Station
Broken Clouds Broken Clouds  
Wind Chill: 45°   Ceiling: 10000
Heat Index: 48°   Visibility: 10mi
Dew Point: 40°   Wind: 6mph
Humidity: 74%   Direction: NA
Pressure: 30.04"   Gusts: NA
Location:  43.0606°N, 75.6518°W
Report Text: KRME 230353Z AUTO VRB05KT 10SM FEW080 BKN100 09/04 A3004 RMK AO2 SLP173 T00890044
Loading
Personal Weather Stations






























Interactive Weather Map
Tropical Storm Tracking
New forecast layout! Learn more

10-Day Weather Forecast

Advertisements
Track Severe Weather on mobile